sensor_id;sensor_type;location;lat;lon;timestamp;pressure;altitude;pressure_sealevel;temperature;humidity
61324;BME280;47203;48.428;11.974;2023-05-23T00:01:07;96444.69;;;22.96;44.71
61324;BME280;47203;48.428;11.974;2023-05-23T00:03:12;96429.28;;;22.93;44.68
61324;BME280;47203;48.428;11.974;2023-05-23T00:05:18;96428.44;;;22.89;44.33
61324;BME280;47203;48.428;11.974;2023-05-23T00:07:23;96432.28;;;22.88;44.69
61324;BME280;47203;48.428;11.974;2023-05-23T00:09:28;96428.72;;;22.84;44.67
61324;BME280;47203;48.428;11.974;2023-05-23T00:11:33;96427.53;;;22.81;44.63
61324;BME280;47203;48.428;11.974;2023-05-23T00:13:38;96434.00;;;22.80;44.84
61324;BME280;47203;48.428;11.974;2023-05-23T00:15:46;96433.16;;;22.76;44.73
61324;BME280;47203;48.428;11.974;2023-05-23T00:17:51;96422.78;;;22.75;44.84
61324;BME280;47203;48.428;11.974;2023-05-23T00:19:56;96425.81;;;22.73;44.90
61324;BME280;47203;48.428;11.974;2023-05-23T00:22:02;96436.88;;;22.72;44.99
61324;BME280;47203;48.428;11.974;2023-05-23T00:24:07;96425.28;;;22.67;44.87
61324;BME280;47203;48.428;11.974;2023-05-23T00:26:12;96420.28;;;22.66;45.16
61324;BME280;47203;48.428;11.974;2023-05-23T00:28:21;96423.66;;;22.63;44.85
61324;BME280;47203;48.428;11.974;2023-05-23T00:30:28;96424.03;;;22.61;45.25
61324;BME280;47203;48.428;11.974;2023-05-23T00:32:37;96430.09;;;22.58;45.21
61324;BME280;47203;48.428;11.974;2023-05-23T00:34:42;96435.44;;;22.58;45.11
61324;BME280;47203;48.428;11.974;2023-05-23T00:36:47;96431.19;;;22.57;45.14
61324;BME280;47203;48.428;11.974;2023-05-23T00:38:52;96440.41;;;22.56;44.78
61324;BME280;47203;48.428;11.974;2023-05-23T00:40:57;96441.88;;;22.54;44.90
61324;BME280;47203;48.428;11.974;2023-05-23T00:43:02;96442.22;;;22.52;45.21
61324;BME280;47203;48.428;11.974;2023-05-23T00:45:10;96443.69;;;22.49;44.88
61324;BME280;47203;48.428;11.974;2023-05-23T00:47:16;96441.34;;;22.48;45.30
61324;BME280;47203;48.428;11.974;2023-05-23T00:49:25;96433.66;;;22.46;45.74
61324;BME280;47203;48.428;11.974;2023-05-23T00:51:30;96435.56;;;22.46;45.18
61324;BME280;47203;48.428;11.974;2023-05-23T00:53:36;96434.34;;;22.43;45.10
61324;BME280;47203;48.428;11.974;2023-05-23T00:55:41;96449.69;;;22.43;45.22
61324;BME280;47203;48.428;11.974;2023-05-23T00:57:46;96451.56;;;22.42;45.19
61324;BME280;47203;48.428;11.974;2023-05-23T00:59:52;96433.91;;;22.41;45.41
61324;BME280;47203;48.428;11.974;2023-05-23T01:01:58;96443.88;;;22.41;45.41
61324;BME280;47203;48.428;11.974;2023-05-23T01:04:05;96442.75;;;22.42;45.71
61324;BME280;47203;48.428;11.974;2023-05-23T01:06:13;96441.19;;;22.41;45.67
61324;BME280;47203;48.428;11.974;2023-05-23T01:08:20;96451.91;;;22.41;45.52
61324;BME280;47203;48.428;11.974;2023-05-23T01:10:26;96444.97;;;22.40;45.58
61324;BME280;47203;48.428;11.974;2023-05-23T01:12:37;96452.59;;;22.38;45.86
61324;BME280;47203;48.428;11.974;2023-05-23T01:14:48;96452.19;;;22.36;45.81
61324;BME280;47203;48.428;11.974;2023-05-23T01:16:57;96454.06;;;22.35;45.52
61324;BME280;47203;48.428;11.974;2023-05-23T01:19:17;96449.06;;;22.34;46.06
61324;BME280;47203;48.428;11.974;2023-05-23T01:21:33;96454.31;;;22.30;45.54
61324;BME280;47203;48.428;11.974;2023-05-23T01:26:26;96467.63;;;22.26;45.92
61324;BME280;47203;48.428;11.974;2023-05-23T01:28:44;96464.19;;;22.26;46.13
61324;BME280;47203;48.428;11.974;2023-05-23T01:30:51;96469.19;;;22.27;45.54
61324;BME280;47203;48.428;11.974;2023-05-23T01:32:57;96466.84;;;22.26;45.53
61324;BME280;47203;48.428;11.974;2023-05-23T01:35:03;96468.41;;;22.27;46.03
61324;BME280;47203;48.428;11.974;2023-05-23T01:37:11;96461.50;;;22.26;45.95
61324;BME280;47203;48.428;11.974;2023-05-23T01:39:19;96461.84;;;22.24;45.64
61324;BME280;47203;48.428;11.974;2023-05-23T01:41:24;96470.22;;;22.23;46.08
61324;BME280;47203;48.428;11.974;2023-05-23T01:43:29;96458.72;;;22.22;45.94
61324;BME280;47203;48.428;11.974;2023-05-23T01:45:37;96467.09;;;22.21;45.89
61324;BME280;47203;48.428;11.974;2023-05-23T01:47:43;96472.03;;;22.19;46.17
61324;BME280;47203;48.428;11.974;2023-05-23T01:49:50;96472.81;;;22.19;46.21
61324;BME280;47203;48.428;11.974;2023-05-23T01:51:56;96470.94;;;22.20;46.10
61324;BME280;47203;48.428;11.974;2023-05-23T01:54:03;96467.44;;;22.19;46.28
61324;BME280;47203;48.428;11.974;2023-05-23T01:56:08;96478.97;;;22.20;46.47
61324;BME280;47203;48.428;11.974;2023-05-23T01:58:13;96470.94;;;22.20;46.48
61324;BME280;47203;48.428;11.974;2023-05-23T02:00:20;96477.06;;;22.20;46.40
61324;BME280;47203;48.428;11.974;2023-05-23T02:02:28;96471.63;;;22.17;46.06
61324;BME280;47203;48.428;11.974;2023-05-23T02:04:34;96473.50;;;22.16;46.35
61324;BME280;47203;48.428;11.974;2023-05-23T02:06:39;96467.38;;;22.16;46.12
61324;BME280;47203;48.428;11.974;2023-05-23T02:08:47;96469.59;;;22.13;46.39
61324;BME280;47203;48.428;11.974;2023-05-23T02:10:52;96476.81;;;22.09;46.48
61324;BME280;47203;48.428;11.974;2023-05-23T02:12:57;96483.28;;;22.08;45.98
61324;BME280;47203;48.428;11.974;2023-05-23T02:15:03;96484.38;;;22.07;46.12
61324;BME280;47203;48.428;11.974;2023-05-23T02:17:10;96484.31;;;22.04;46.54
61324;BME280;47203;48.428;11.974;2023-05-23T02:19:18;96484.66;;;22.02;46.63
61324;BME280;47203;48.428;11.974;2023-05-23T02:21:23;96483.44;;;22.00;46.47
61324;BME280;47203;48.428;11.974;2023-05-23T02:23:28;96480.31;;;21.97;46.29
61324;BME280;47203;48.428;11.974;2023-05-23T02:25:33;96477.63;;;21.97;46.26
61324;BME280;47203;48.428;11.974;2023-05-23T02:27:40;96479.13;;;21.95;46.52
61324;BME280;47203;48.428;11.974;2023-05-23T02:29:45;96477.56;;;21.94;46.45
61324;BME280;47203;48.428;11.974;2023-05-23T02:31:50;96485.94;;;21.92;46.66
61324;BME280;47203;48.428;11.974;2023-05-23T02:33:55;96486.28;;;21.91;46.84
61324;BME280;47203;48.428;11.974;2023-05-23T02:36:03;96478.94;;;21.88;46.89
61324;BME280;47203;48.428;11.974;2023-05-23T02:38:08;96480.47;;;21.89;46.44
61324;BME280;47203;48.428;11.974;2023-05-23T02:40:15;96480.03;;;21.87;46.61
61324;BME280;47203;48.428;11.974;2023-05-23T02:42:20;96481.16;;;21.86;46.79
61324;BME280;47203;48.428;11.974;2023-05-23T02:44:25;96485.31;;;21.83;46.65
61324;BME280;47203;48.428;11.974;2023-05-23T02:46:31;96485.66;;;21.82;46.81
61324;BME280;47203;48.428;11.974;2023-05-23T02:48:37;96488.34;;;21.82;47.06
61324;BME280;47203;48.428;11.974;2023-05-23T02:50:42;96487.91;;;21.79;46.72
61324;BME280;47203;48.428;11.974;2023-05-23T02:52:50;96487.47;;;21.77;47.34
61324;BME280;47203;48.428;11.974;2023-05-23T02:54:55;96484.00;;;21.77;47.09
61324;BME280;47203;48.428;11.974;2023-05-23T02:57:01;96476.31;;;21.75;47.10
61324;BME280;47203;48.428;11.974;2023-05-23T02:59:11;96479.31;;;21.74;46.84
61324;BME280;47203;48.428;11.974;2023-05-23T03:01:16;96480.81;;;21.71;47.18
61324;BME280;47203;48.428;11.974;2023-05-23T03:03:21;96484.16;;;21.68;47.46
61324;BME280;47203;48.428;11.974;2023-05-23T03:05:30;96492.53;;;21.67;47.17
61324;BME280;47203;48.428;11.974;2023-05-23T03:07:35;96494.44;;;21.66;47.14
61324;BME280;47203;48.428;11.974;2023-05-23T03:09:43;96492.53;;;21.67;47.83
61324;BME280;47203;48.428;11.974;2023-05-23T03:11:48;96486.75;;;21.65;47.46
61324;BME280;47203;48.428;11.974;2023-05-23T03:13:53;96489.41;;;21.65;47.34
61324;BME280;47203;48.428;11.974;2023-05-23T03:15:58;96492.09;;;21.65;47.68
61324;BME280;47203;48.428;11.974;2023-05-23T03:18:03;96485.97;;;21.64;47.75
61324;BME280;47203;48.428;11.974;2023-05-23T03:20:10;96489.00;;;21.63;47.74
61324;BME280;47203;48.428;11.974;2023-05-23T03:22:16;96487.84;;;21.64;47.43
61324;BME280;47203;48.428;11.974;2023-05-23T03:24:21;96489.00;;;21.63;47.45
61324;BME280;47203;48.428;11.974;2023-05-23T03:26:29;96483.97;;;21.61;47.83
61324;BME280;47203;48.428;11.974;2023-05-23T03:28:35;96479.75;;;21.60;47.70
61324;BME280;47203;48.428;11.974;2023-05-23T03:30:40;96482.75;;;21.58;47.75
61324;BME280;47203;48.428;11.974;2023-05-23T03:32:46;96479.63;;;21.56;47.28
61324;BME280;47203;48.428;11.974;2023-05-23T03:34:51;96488.00;;;21.55;47.49
61324;BME280;47203;48.428;11.974;2023-05-23T03:36:57;96491.38;;;21.52;47.93
61324;BME280;47203;48.428;11.974;2023-05-23T03:39:02;96482.09;;;21.49;47.72
61324;BME280;47203;48.428;11.974;2023-05-23T03:41:08;96480.53;;;21.48;47.77
61324;BME280;47203;48.428;11.974;2023-05-23T03:43:16;96482.75;;;21.46;47.70
61324;BME280;47203;48.428;11.974;2023-05-23T03:45:22;96481.22;;;21.45;47.89
61324;BME280;47203;48.428;11.974;2023-05-23T03:47:27;96486.91;;;21.43;48.10
61324;BME280;47203;48.428;11.974;2023-05-23T03:49:33;96487.25;;;21.42;47.81
61324;BME280;47203;48.428;11.974;2023-05-23T03:51:39;96490.25;;;21.40;47.90
61324;BME280;47203;48.428;11.974;2023-05-23T03:53:47;96491.75;;;21.38;47.98
61324;BME280;47203;48.428;11.974;2023-05-23T03:55:52;96496.63;;;21.36;48.12
61324;BME280;47203;48.428;11.974;2023-05-23T03:57:57;96505.78;;;21.35;48.28
61324;BME280;47203;48.428;11.974;2023-05-23T04:00:06;96494.97;;;21.31;48.52
61324;BME280;47203;48.428;11.974;2023-05-23T04:02:19;96502.25;;;21.31;48.27
61324;BME280;47203;48.428;11.974;2023-05-23T04:04:25;96499.56;;;21.31;48.04
61324;BME280;47203;48.428;11.974;2023-05-23T04:06:30;96500.69;;;21.30;48.05
61324;BME280;47203;48.428;11.974;2023-05-23T04:08:35;96503.69;;;21.28;48.15
61324;BME280;47203;48.428;11.974;2023-05-23T04:10:43;96505.16;;;21.25;48.42
61324;BME280;47203;48.428;11.974;2023-05-23T04:12:49;96512.75;;;21.23;48.19
61324;BME280;47203;48.428;11.974;2023-05-23T04:14:54;96512.28;;;21.21;48.17
61324;BME280;47203;48.428;11.974;2023-05-23T04:17:01;96511.84;;;21.19;48.58
61324;BME280;47203;48.428;11.974;2023-05-23T04:19:07;96514.53;;;21.19;48.82
61324;BME280;47203;48.428;11.974;2023-05-23T04:21:13;96511.72;;;21.16;48.48
61324;BME280;47203;48.428;11.974;2023-05-23T04:23:27;96512.41;;;21.13;48.83
61324;BME280;47203;48.428;11.974;2023-05-23T04:25:33;96509.31;;;21.10;48.97
61324;BME280;47203;48.428;11.974;2023-05-23T04:28:07;96512.53;;;21.04;48.72
61324;BME280;47203;48.428;11.974;2023-05-23T04:30:13;96517.88;;;21.04;48.97
61324;BME280;47203;48.428;11.974;2023-05-23T04:32:22;96526.59;;;21.01;49.12
61324;BME280;47203;48.428;11.974;2023-05-23T04:34:27;96520.47;;;21.00;49.06
61324;BME280;47203;48.428;11.974;2023-05-23T04:36:35;96530.41;;;21.00;49.11
61324;BME280;47203;48.428;11.974;2023-05-23T04:38:42;96531.50;;;20.99;49.14
61324;BME280;47203;48.428;11.974;2023-05-23T04:40:47;96537.19;;;20.97;49.41
61324;BME280;47203;48.428;11.974;2023-05-23T04:43:11;96533.28;;;20.95;49.08
61324;BME280;47203;48.428;11.974;2023-05-23T04:45:28;96531.28;;;20.91;49.15
61324;BME280;47203;48.428;11.974;2023-05-23T04:47:46;96537.75;;;20.90;49.55
61324;BME280;47203;48.428;11.974;2023-05-23T04:50:05;96540.75;;;20.89;49.40
61324;BME280;47203;48.428;11.974;2023-05-23T04:52:11;96543.34;;;20.85;49.83
61324;BME280;47203;48.428;11.974;2023-05-23T04:54:16;96542.53;;;20.85;49.90
61324;BME280;47203;48.428;11.974;2023-05-23T04:56:22;96541.00;;;20.84;49.64
61324;BME280;47203;48.428;11.974;2023-05-23T04:58:29;96540.22;;;20.83;49.82
61324;BME280;47203;48.428;11.974;2023-05-23T05:00:38;96537.19;;;20.85;49.94
61324;BME280;47203;48.428;11.974;2023-05-23T05:02:48;96532.66;;;20.85;50.61
61324;BME280;47203;48.428;11.974;2023-05-23T05:04:53;96542.66;;;20.88;50.30
61324;BME280;47203;48.428;11.974;2023-05-23T05:06:59;96535.75;;;20.87;50.06
61324;BME280;47203;48.428;11.974;2023-05-23T05:09:04;96538.09;;;20.89;50.51
61324;BME280;47203;48.428;11.974;2023-05-23T05:11:10;96542.66;;;20.88;50.62
61324;BME280;47203;48.428;11.974;2023-05-23T05:13:15;96542.66;;;20.88;50.52
61324;BME280;47203;48.428;11.974;2023-05-23T05:15:24;96540.75;;;20.89;50.65
61324;BME280;47203;48.428;11.974;2023-05-23T05:17:31;96555.72;;;20.90;50.50
61324;BME280;47203;48.428;11.974;2023-05-23T05:19:44;96545.78;;;20.90;51.03
61324;BME280;47203;48.428;11.974;2023-05-23T05:21:51;96557.59;;;20.89;51.04
61324;BME280;47203;48.428;11.974;2023-05-23T05:23:57;96552.69;;;20.91;50.93
61324;BME280;47203;48.428;11.974;2023-05-23T05:26:02;96561.50;;;20.92;50.62
61324;BME280;47203;48.428;11.974;2023-05-23T05:28:09;96565.72;;;20.93;51.11
61324;BME280;47203;48.428;11.974;2023-05-23T05:30:18;96558.81;;;20.92;51.20
61324;BME280;47203;48.428;11.974;2023-05-23T05:32:31;96570.31;;;20.92;51.14
61324;BME280;47203;48.428;11.974;2023-05-23T05:34:36;96576.88;;;20.95;51.18
61324;BME280;47203;48.428;11.974;2023-05-23T05:36:44;96571.97;;;20.97;51.38
61324;BME280;47203;48.428;11.974;2023-05-23T05:38:51;96577.00;;;20.99;51.00
61324;BME280;47203;48.428;11.974;2023-05-23T05:40:57;96577.44;;;21.01;51.46
61324;BME280;47203;48.428;11.974;2023-05-23T05:43:07;96579.78;;;21.02;50.94
61324;BME280;47203;48.428;11.974;2023-05-23T05:45:13;96583.69;;;21.05;51.39
61324;BME280;47203;48.428;11.974;2023-05-23T05:47:20;96567.63;;;21.05;51.23
61324;BME280;47203;48.428;11.974;2023-05-23T05:49:25;96571.06;;;21.05;51.21
61324;BME280;47203;48.428;11.974;2023-05-23T05:51:31;96584.91;;;21.07;51.36
61324;BME280;47203;48.428;11.974;2023-05-23T05:53:39;96582.22;;;21.07;51.55
61324;BME280;47203;48.428;11.974;2023-05-23T05:55:44;96574.22;;;21.07;51.47
61324;BME280;47203;48.428;11.974;2023-05-23T05:57:49;96576.53;;;21.09;51.76
61324;BME280;47203;48.428;11.974;2023-05-23T05:59:54;96570.09;;;21.10;51.63
61324;BME280;47203;48.428;11.974;2023-05-23T06:02:00;96575.19;;;21.15;51.36
61324;BME280;47203;48.428;11.974;2023-05-23T06:04:05;96577.53;;;21.17;51.51
61324;BME280;47203;48.428;11.974;2023-05-23T06:06:10;96571.50;;;21.20;51.78
61324;BME280;47203;48.428;11.974;2023-05-23T06:08:15;96578.84;;;21.23;51.66
61324;BME280;47203;48.428;11.974;2023-05-23T06:10:22;96584.31;;;21.26;51.87
61324;BME280;47203;48.428;11.974;2023-05-23T06:12:28;96584.09;;;21.32;51.61
61324;BME280;47203;48.428;11.974;2023-05-23T06:14:33;96585.31;;;21.34;52.17
61324;BME280;47203;48.428;11.974;2023-05-23T06:16:39;96583.88;;;21.37;51.74
61324;BME280;47203;48.428;11.974;2023-05-23T06:18:44;96583.19;;;21.40;52.24
61324;BME280;47203;48.428;11.974;2023-05-23T06:20:49;96588.63;;;21.43;51.77
61324;BME280;47203;48.428;11.974;2023-05-23T06:22:55;96580.72;;;21.47;51.94
61324;BME280;47203;48.428;11.974;2023-05-23T06:25:01;96584.31;;;21.51;52.43
61324;BME280;47203;48.428;11.974;2023-05-23T06:27:09;96578.28;;;21.54;52.31
61324;BME280;47203;48.428;11.974;2023-05-23T06:29:14;96584.19;;;21.60;52.18
61324;BME280;47203;48.428;11.974;2023-05-23T06:31:19;96589.28;;;21.65;52.18
61324;BME280;47203;48.428;11.974;2023-05-23T06:33:24;96591.63;;;21.67;52.03
61324;BME280;47203;48.428;11.974;2023-05-23T06:35:30;96594.06;;;21.72;52.31
61324;BME280;47203;48.428;11.974;2023-05-23T06:37:35;96579.66;;;21.76;52.03
61324;BME280;47203;48.428;11.974;2023-05-23T06:39:44;96597.72;;;21.79;52.22
61324;BME280;47203;48.428;11.974;2023-05-23T06:41:49;96600.94;;;21.85;52.31
61324;BME280;47203;48.428;11.974;2023-05-23T06:43:56;96603.72;;;21.89;52.41
61324;BME280;47203;48.428;11.974;2023-05-23T06:46:04;96596.91;;;21.91;51.99
61324;BME280;47203;48.428;11.974;2023-05-23T06:48:09;96599.69;;;21.95;52.11
61324;BME280;47203;48.428;11.974;2023-05-23T06:50:15;96589.50;;;22.01;52.32
61324;BME280;47203;48.428;11.974;2023-05-23T06:52:22;96598.88;;;22.07;52.30
61324;BME280;47203;48.428;11.974;2023-05-23T06:54:27;96600.94;;;22.13;52.31
61324;BME280;47203;48.428;11.974;2023-05-23T06:56:32;96603.03;;;22.20;52.60
61324;BME280;47203;48.428;11.974;2023-05-23T06:58:38;96600.88;;;22.26;52.11
61324;BME280;47203;48.428;11.974;2023-05-23T07:00:50;96599.84;;;22.30;52.31
61324;BME280;47203;48.428;11.974;2023-05-23T07:02:59;96598.44;;;22.33;52.35
61324;BME280;47203;48.428;11.974;2023-05-23T07:05:05;96600.50;;;22.40;52.10
61324;BME280;47203;48.428;11.974;2023-05-23T07:07:20;96602.16;;;22.44;52.60
61324;BME280;47203;48.428;11.974;2023-05-23T07:09:25;96601.56;;;22.51;52.49
61324;BME280;47203;48.428;11.974;2023-05-23T07:11:40;96599.75;;;22.55;52.54
61324;BME280;47203;48.428;11.974;2023-05-23T07:13:46;96609.44;;;22.60;52.06
61324;BME280;47203;48.428;11.974;2023-05-23T07:16:06;96617.59;;;22.63;52.12
61324;BME280;47203;48.428;11.974;2023-05-23T07:18:21;96613.06;;;22.67;52.16
61324;BME280;47203;48.428;11.974;2023-05-23T07:20:27;96610.13;;;22.73;51.85
61324;BME280;47203;48.428;11.974;2023-05-23T07:22:39;96614.81;;;22.76;51.68
61324;BME280;47203;48.428;11.974;2023-05-23T07:24:44;96610.31;;;22.80;51.63
61324;BME280;47203;48.428;11.974;2023-05-23T07:26:48;96606.59;;;22.84;51.63
61324;BME280;47203;48.428;11.974;2023-05-23T07:28:54;96611.72;;;22.90;51.59
61324;BME280;47203;48.428;11.974;2023-05-23T07:30:59;96596.44;;;22.94;51.69
61324;BME280;47203;48.428;11.974;2023-05-23T07:33:08;96607.28;;;22.97;51.22
61324;BME280;47203;48.428;11.974;2023-05-23T07:35:14;96603.53;;;23.02;51.27
61324;BME280;47203;48.428;11.974;2023-05-23T07:37:19;96605.97;;;23.07;51.25
61324;BME280;47203;48.428;11.974;2023-05-23T07:39:24;96604.16;;;23.11;51.65
61324;BME280;47203;48.428;11.974;2023-05-23T07:41:31;96596.97;;;23.15;51.63
61324;BME280;47203;48.428;11.974;2023-05-23T07:43:36;96603.97;;;23.20;51.09
61324;BME280;47203;48.428;11.974;2023-05-23T07:45:42;96608.31;;;23.25;51.19
61324;BME280;47203;48.428;11.974;2023-05-23T07:47:47;96609.94;;;23.29;51.42
61324;BME280;47203;48.428;11.974;2023-05-23T07:49:55;96612.69;;;23.33;51.38
61324;BME280;47203;48.428;11.974;2023-05-23T07:52:04;96613.97;;;23.39;51.15
61324;BME280;47203;48.428;11.974;2023-05-23T07:54:10;96617.19;;;23.45;51.30
61324;BME280;47203;48.428;11.974;2023-05-23T07:56:17;96620.72;;;23.49;51.23
61324;BME280;47203;48.428;11.974;2023-05-23T07:58:22;96618.91;;;23.53;50.84
61324;BME280;47203;48.428;11.974;2023-05-23T08:00:27;96611.69;;;23.57;50.87
61324;BME280;47203;48.428;11.974;2023-05-23T08:02:41;96626.00;;;23.61;50.88
61324;BME280;47203;48.428;11.974;2023-05-23T08:04:56;96614.09;;;23.62;50.50
61324;BME280;47203;48.428;11.974;2023-05-23T08:07:01;96618.00;;;23.65;50.82
61324;BME280;47203;48.428;11.974;2023-05-23T08:09:29;96604.97;;;23.67;50.47
61324;BME280;47203;48.428;11.974;2023-05-23T08:11:34;96615.03;;;23.70;50.47
61324;BME280;47203;48.428;11.974;2023-05-23T08:13:40;96611.56;;;23.69;50.42
61324;BME280;47203;48.428;11.974;2023-05-23T08:16:04;96612.06;;;23.75;51.00
61324;BME280;47203;48.428;11.974;2023-05-23T08:18:12;96603.38;;;23.82;50.81
61324;BME280;47203;48.428;11.974;2023-05-23T08:20:20;96608.50;;;23.87;50.90
61324;BME280;47203;48.428;11.974;2023-05-23T08:22:32;96596.31;;;23.93;51.18
61324;BME280;47203;48.428;11.974;2023-05-23T08:24:38;96609.13;;;24.00;50.83
61324;BME280;47203;48.428;11.974;2023-05-23T08:26:44;96606.16;;;24.05;50.44
61324;BME280;47203;48.428;11.974;2023-05-23T08:28:51;96615.06;;;24.09;50.68
61324;BME280;47203;48.428;11.974;2023-05-23T08:30:56;96617.47;;;24.14;50.12
61324;BME280;47203;48.428;11.974;2023-05-23T08:33:03;96618.69;;;24.17;50.19
61324;BME280;47203;48.428;11.974;2023-05-23T08:35:10;96624.53;;;24.22;50.38
61324;BME280;47203;48.428;11.974;2023-05-23T08:37:19;96618.44;;;24.26;49.97
61324;BME280;47203;48.428;11.974;2023-05-23T08:39:24;96630.47;;;24.32;50.33
61324;BME280;47203;48.428;11.974;2023-05-23T08:41:47;96624.78;;;24.37;50.31
61324;BME280;47203;48.428;11.974;2023-05-23T08:43:52;96621.88;;;24.46;50.35
61324;BME280;47203;48.428;11.974;2023-05-23T08:46:02;96628.94;;;24.54;50.11
61324;BME280;47203;48.428;11.974;2023-05-23T08:48:08;96632.56;;;24.62;49.72
61324;BME280;47203;48.428;11.974;2023-05-23T08:50:19;96642.31;;;24.70;49.69
61324;BME280;47203;48.428;11.974;2023-05-23T08:52:29;96636.28;;;24.77;49.55
61324;BME280;47203;48.428;11.974;2023-05-23T08:54:37;96638.31;;;24.83;49.60
61324;BME280;47203;48.428;11.974;2023-05-23T08:56:42;96636.13;;;24.92;49.34
61324;BME280;47203;48.428;11.974;2023-05-23T08:58:49;96641.63;;;25.00;49.40
61324;BME280;47203;48.428;11.974;2023-05-23T09:00:55;96644.81;;;25.05;49.20
61324;BME280;47203;48.428;11.974;2023-05-23T09:03:00;96646.41;;;25.10;49.42
61324;BME280;47203;48.428;11.974;2023-05-23T09:05:29;96648.41;;;25.13;48.92
61324;BME280;47203;48.428;11.974;2023-05-23T09:07:37;96644.63;;;25.18;48.73
61324;BME280;47203;48.428;11.974;2023-05-23T09:09:43;96655.44;;;25.21;48.86
61324;BME280;47203;48.428;11.974;2023-05-23T09:11:51;96652.03;;;25.24;48.72
61324;BME280;47203;48.428;11.974;2023-05-23T09:13:56;96652.09;;;25.28;48.71
61324;BME280;47203;48.428;11.974;2023-05-23T09:16:03;96645.56;;;25.29;48.19
61324;BME280;47203;48.428;11.974;2023-05-23T09:18:23;96651.66;;;25.26;48.38
61324;BME280;47203;48.428;11.974;2023-05-23T09:20:29;96654.34;;;25.26;47.95
61324;BME280;47203;48.428;11.974;2023-05-23T09:22:45;96658.56;;;25.23;47.48
61324;BME280;47203;48.428;11.974;2023-05-23T09:24:52;96655.06;;;25.23;47.64
61324;BME280;47203;48.428;11.974;2023-05-23T09:26:57;96653.94;;;25.24;47.87
61324;BME280;47203;48.428;11.974;2023-05-23T09:29:04;96649.31;;;25.24;47.52
61324;BME280;47203;48.428;11.974;2023-05-23T09:31:09;96638.19;;;25.26;47.68
61324;BME280;47203;48.428;11.974;2023-05-23T09:33:15;96643.22;;;25.27;47.79
61324;BME280;47203;48.428;11.974;2023-05-23T09:35:21;96642.44;;;25.27;47.79
61324;BME280;47203;48.428;11.974;2023-05-23T09:37:32;96645.56;;;25.29;47.90
61324;BME280;47203;48.428;11.974;2023-05-23T09:39:45;96645.25;;;25.31;47.86
61324;BME280;47203;48.428;11.974;2023-05-23T09:41:50;96657.63;;;25.35;47.78
61324;BME280;47203;48.428;11.974;2023-05-23T09:43:55;96649.16;;;25.37;47.88
61324;BME280;47203;48.428;11.974;2023-05-23T09:46:06;96660.41;;;25.42;47.71
61324;BME280;47203;48.428;11.974;2023-05-23T09:48:12;96650.47;;;25.47;47.56
61324;BME280;47203;48.428;11.974;2023-05-23T09:50:17;96658.19;;;25.48;47.27
61324;BME280;47203;48.428;11.974;2023-05-23T09:52:22;96657.81;;;25.50;47.14
61324;BME280;47203;48.428;11.974;2023-05-23T09:54:27;96657.47;;;25.51;47.26
61324;BME280;47203;48.428;11.974;2023-05-23T09:56:39;96660.91;;;25.52;46.75
61324;BME280;47203;48.428;11.974;2023-05-23T09:58:46;96657.47;;;25.51;47.06
61324;BME280;47203;48.428;11.974;2023-05-23T10:00:52;96653.19;;;25.50;46.83
61324;BME280;47203;48.428;11.974;2023-05-23T10:03:04;96659.34;;;25.51;46.41
61324;BME280;47203;48.428;11.974;2023-05-23T10:05:21;96663.56;;;25.48;46.74
61324;BME280;47203;48.428;11.974;2023-05-23T10:07:32;96650.88;;;25.49;46.39
61324;BME280;47203;48.428;11.974;2023-05-23T10:09:38;96650.09;;;25.48;46.67
61324;BME280;47203;48.428;11.974;2023-05-23T10:12:35;96649.31;;;25.48;46.33
61324;BME280;47203;48.428;11.974;2023-05-23T10:14:49;96651.25;;;25.47;46.33
61324;BME280;47203;48.428;11.974;2023-05-23T10:17:02;96648.94;;;25.49;46.14
61324;BME280;47203;48.428;11.974;2023-05-23T10:19:18;96653.19;;;25.50;46.28
61324;BME280;47203;48.428;11.974;2023-05-23T10:21:28;96650.13;;;25.52;46.06
61324;BME280;47203;48.428;11.974;2023-05-23T10:23:37;96647.50;;;25.55;46.20
61324;BME280;47203;48.428;11.974;2023-05-23T10:25:43;96648.31;;;25.59;46.33
61324;BME280;47203;48.428;11.974;2023-05-23T10:27:54;96640.28;;;25.63;46.17
61324;BME280;47203;48.428;11.974;2023-05-23T10:30:05;96647.31;;;25.71;46.71
61324;BME280;47203;48.428;11.974;2023-05-23T10:32:10;96646.25;;;25.76;46.30
61324;BME280;47203;48.428;11.974;2023-05-23T10:34:22;96653.22;;;25.81;46.23
61324;BME280;47203;48.428;11.974;2023-05-23T10:36:35;96645.13;;;25.81;45.72
61324;BME280;47203;48.428;11.974;2023-05-23T10:41:09;96643.66;;;25.87;46.26
61324;BME280;47203;48.428;11.974;2023-05-23T10:43:21;96646.41;;;25.90;45.92
61324;BME280;47203;48.428;11.974;2023-05-23T10:45:29;96651.84;;;25.94;46.02
61324;BME280;47203;48.428;11.974;2023-05-23T10:47:34;96646.09;;;25.95;45.46
61324;BME280;47203;48.428;11.974;2023-05-23T10:49:41;96640.31;;;25.97;45.80
61324;BME280;47203;48.428;11.974;2023-05-23T10:51:48;96643.78;;;25.98;45.44
61324;BME280;47203;48.428;11.974;2023-05-23T10:53:54;96643.03;;;25.97;45.33
61324;BME280;47203;48.428;11.974;2023-05-23T10:55:59;96628.41;;;25.98;45.70
61324;BME280;47203;48.428;11.974;2023-05-23T10:58:11;96626.47;;;25.99;45.17
61324;BME280;47203;48.428;11.974;2023-05-23T11:00:22;96629.94;;;25.99;44.88
61324;BME280;47203;48.428;11.974;2023-05-23T11:02:28;96623.00;;;25.98;45.44
61324;BME280;47203;48.428;11.974;2023-05-23T11:04:33;96627.25;;;25.99;45.29
61324;BME280;47203;48.428;11.974;2023-05-23T11:06:39;96625.78;;;26.02;44.90
61324;BME280;47203;48.428;11.974;2023-05-23T11:08:45;96627.34;;;26.03;44.99
61324;BME280;47203;48.428;11.974;2023-05-23T11:10:51;96626.56;;;26.02;44.72
61324;BME280;47203;48.428;11.974;2023-05-23T11:13:05;96620.81;;;26.04;45.04